Main page
METAR-TAF:

METAR-TAF

Airports :

Koror, Babeldaob, Palau

Roman Tmetuchl International Airport

latitude: 07-22N, longitude: 134-32E, elevation: 54 m

Current weather observation

The report was made 37 minutes ago, at 13:50 UTC
Wind 8 kt from the East/Northeast
Temperature 25°C
Humidity 94%
Pressure 1008 hPa
Visibility: 22.5 km
Broken clouds at a height of 1600 ft, Towering cumulus.
Broken clouds at a height of 12000 ft
Overcast at a height of 30000 ft

METAR: PTRO 211350Z 07008KT 14SM BKN016TCU BKN120 OVC300 25/24 A2978 RMK TCU ALQDS

Time: 23:27 (14:27 UTC)

Forecast

The report was made 2 hours and 46 minutes ago, at 11:41 UTC
Forecast valid from 21 at 12 UTC to 22 at 12 UTC
Wind 11 kt from the East with gusts up to 15 kt
Visibility: 10 km
Scattered clouds at a height of 1600 ft
Broken clouds at a height of 12000 ft
showers in vicinity

TAF: PTRO 211141Z 2112/2212 08011G15KT P6SM VCSH SCT016 BKN120

Weather observations and forecasts of more than 4000 airports (METAR and TAF reports).

The available stations are represented by yellow and red dots on the map.

Hover mouse over dot to see the name of the station.

Then click to see weather observations and forecasts.

To change the map : click on the green buttons with a black cross to zoom in, on the green button with a dash to zoom out, or on the green arrows for adjacent maps.


METAR-TAF: